Time;durP1;ratioP1;P1;durP2;ratioP2;P2;SDS_P1;SDS_P2;PMS_P1;PMS_P2;Temp;Humidity;BMP_temperature;BMP_pressure;BME280_temperature;BME280_humidity;BME280_pressure;Samples;Min_cycle;Max_cycle;Signal;HPM_P1;HPM_P2
2022/05/18 00:00:13;;;;;;;4.93;4.38;;;;;;;16.86;68.35;95320.00;5028445;28;20488;-75
2022/05/18 00:02:39;;;;;;;5.70;4.18;;;;;;;16.80;68.99;95317.13;5010618;28;20551;-75
2022/05/18 00:05:05;;;;;;;5.43;4.30;;;;;;;16.81;69.16;95312.53;4994395;28;20102;-76
2022/05/18 00:07:30;;;;;;;4.68;4.05;;;;;;;16.78;69.21;95312.97;5026797;28;20484;-76
2022/05/18 00:09:56;;;;;;;6.00;3.88;;;;;;;16.78;68.50;95319.22;5010778;28;20404;-75
2022/05/18 00:12:21;;;;;;;5.95;4.43;;;;;;;16.73;69.00;95312.81;5028751;28;20021;-76
2022/05/18 00:14:47;;;;;;;7.65;4.20;;;;;;;16.73;68.72;95315.50;5028234;28;20025;-76
2022/05/18 00:17:12;;;;;;;5.10;4.05;;;;;;;16.78;68.31;95318.41;5026838;28;20033;-75
2022/05/18 00:19:38;;;;;;;7.00;4.18;;;;;;;16.73;68.23;95313.63;5026599;28;20037;-76
2022/05/18 00:22:03;;;;;;;5.90;4.10;;;;;;;16.44;69.54;95311.28;5028188;28;20021;-75
2022/05/18 00:24:29;;;;;;;6.78;4.20;;;;;;;16.50;68.95;95309.63;5010120;28;20032;-75
2022/05/18 00:26:54;;;;;;;5.82;4.57;;;;;;;16.56;69.10;95316.03;5028508;28;20052;-75
2022/05/18 00:29:20;;;;;;;4.50;4.10;;;;;;;16.49;69.31;95312.53;5027740;28;20034;-76
2022/05/18 00:31:48;;;;;;;5.30;4.15;;;;;;;16.54;69.03;95315.44;5028205;28;20472;-76
2022/05/18 00:34:16;;;;;;;5.20;4.18;;;;;;;16.55;69.00;95327.91;5026435;28;20056;-75
2022/05/18 00:36:41;;;;;;;5.32;4.18;;;;;;;16.56;69.07;95326.84;5026259;28;20071;-75
2022/05/18 00:39:07;;;;;;;5.88;4.32;;;;;;;16.57;68.85;95320.41;5010271;28;20063;-76
2022/05/18 00:41:32;;;;;;;5.78;4.35;;;;;;;16.61;68.71;95316.19;5026068;28;20065;-75
2022/05/18 00:43:58;;;;;;;6.18;4.13;;;;;;;16.55;69.10;95323.34;5026711;28;20103;-75
2022/05/18 00:46:23;;;;;;;4.95;4.10;;;;;;;16.49;69.01;95326.06;5009481;28;20029;-75
2022/05/18 00:48:49;;;;;;;5.93;4.93;;;;;;;16.39;70.25;95327.38;5010051;28;20384;-75
2022/05/18 00:51:17;;;;;;;5.82;4.88;;;;;;;16.35;70.45;95328.00;5026186;28;20065;-76
2022/05/18 00:53:47;;;;;;;7.57;4.72;;;;;;;16.28;70.66;95323.47;5027209;28;20543;-76
2022/05/18 00:56:14;;;;;;;5.30;4.40;;;;;;;16.36;70.02;95327.81;5009926;28;20109;-76
2022/05/18 00:58:43;;;;;;;5.15;4.65;;;;;;;16.35;69.54;95328.84;5009587;28;20029;-75
2022/05/18 01:01:08;;;;;;;5.55;4.60;;;;;;;16.29;69.69;95327.00;5025934;28;20036;-75
2022/05/18 01:03:40;;;;;;;6.65;4.68;;;;;;;16.26;69.56;95327.44;5009342;28;20025;-76
2022/05/18 01:06:08;;;;;;;6.47;5.07;;;;;;;16.30;69.36;95320.53;5009979;28;20126;-76
2022/05/18 01:08:46;;;;;;;7.35;5.28;;;;;;;16.22;69.66;95326.22;5010054;28;20033;-76
2022/05/18 01:11:12;;;;;;;8.93;5.20;;;;;;;16.05;69.73;95321.28;5025566;28;20029;-76
2022/05/18 01:13:37;;;;;;;6.97;5.30;;;;;;;15.94;70.06;95318.16;5027802;28;20341;-76
2022/05/18 01:16:03;;;;;;;5.88;5.28;;;;;;;15.98;69.88;95323.16;5025398;28;20029;-76
2022/05/18 01:18:28;;;;;;;5.75;5.10;;;;;;;15.99;70.52;95319.44;5009275;28;20342;-76
2022/05/18 01:20:54;;;;;;;6.28;5.13;;;;;;;15.98;70.62;95312.34;5026791;28;20025;-77
2022/05/18 01:23:46;;;;;;;5.32;4.72;;;;;;;15.98;70.61;95315.06;4993140;28;20022;-76
2022/05/18 01:26:30;;;;;;;6.32;5.45;;;;;;;15.97;70.38;95316.91;5011432;28;20039;-76
2022/05/18 01:28:57;;;;;;;6.63;5.57;;;;;;;15.87;70.95;95309.25;5025211;28;20036;-76
2022/05/18 01:31:44;;;;;;;6.80;5.35;;;;;;;15.92;70.76;95306.75;5025577;28;20047;-76
2022/05/18 01:34:10;;;;;;;6.07;5.25;;;;;;;15.91;70.28;95307.78;5026676;28;20060;-76
2022/05/18 01:36:36;;;;;;;6.10;5.10;;;;;;;15.94;70.25;95304.63;5008973;28;20025;-75
2022/05/18 01:39:02;;;;;;;5.35;4.85;;;;;;;16.00;69.96;95299.44;5026938;28;20025;-75
2022/05/18 01:41:27;;;;;;;8.20;5.47;;;;;;;15.98;69.75;95307.78;5008271;28;20068;-75
2022/05/18 01:43:54;;;;;;;6.65;5.40;;;;;;;15.93;69.98;95294.03;5025409;28;20412;-76
2022/05/18 01:46:21;;;;;;;7.43;4.93;;;;;;;15.92;69.76;95289.69;5007964;28;20037;-76
2022/05/18 01:48:50;;;;;;;6.60;4.82;;;;;;;15.79;70.07;95282.44;5026918;28;20026;-75
2022/05/18 01:51:40;;;;;;;8.52;5.75;;;;;;;15.69;70.28;95283.72;5025050;28;20106;-76
2022/05/18 01:54:05;;;;;;;5.13;4.28;;;;;;;15.68;70.23;95282.09;5022302;28;20041;-75
2022/05/18 01:56:31;;;;;;;6.68;4.57;;;;;;;15.62;70.36;95282.91;5025110;28;20025;-77
2022/05/18 01:58:56;;;;;;;6.97;5.22;;;;;;;15.66;70.27;95283.31;5024809;28;20167;-75
2022/05/18 02:01:21;;;;;;;5.45;4.55;;;;;;;15.69;69.95;95285.59;5026552;28;20033;-75
2022/05/18 02:03:48;;;;;;;4.85;4.35;;;;;;;15.68;69.90;95287.50;5024546;28;20040;-75
2022/05/18 02:06:13;;;;;;;4.93;4.35;;;;;;;15.69;70.08;95280.19;5008167;28;20038;-77
2022/05/18 02:08:40;;;;;;;7.90;4.75;;;;;;;15.67;69.95;95275.00;5024587;28;20455;-76
2022/05/18 02:11:10;;;;;;;7.28;4.72;;;;;;;15.69;69.84;95281.03;5008755;28;20456;-76
2022/05/18 02:13:35;;;;;;;6.60;4.78;;;;;;;15.68;69.73;95279.38;5024815;28;20028;-75
2022/05/18 02:16:04;;;;;;;5.70;4.13;;;;;;;15.66;69.16;95281.47;5025936;28;20018;-76
2022/05/18 02:18:29;;;;;;;5.13;4.63;;;;;;;15.60;69.45;95284.19;5024651;28;20415;-76
2022/05/18 02:20:55;;;;;;;5.63;4.65;;;;;;;15.49;69.99;95280.25;5024577;28;20481;-77
2022/05/18 02:23:21;;;;;;;5.60;4.50;;;;;;;15.36;70.12;95284.66;5026514;28;20026;-77
2022/05/18 02:25:46;;;;;;;5.38;4.35;;;;;;;15.40;69.91;95282.34;5024114;28;20100;-76
2022/05/18 02:28:12;;;;;;;6.82;5.05;;;;;;;15.36;70.29;95281.97;5008861;28;20034;-76
2022/05/18 02:30:37;;;;;;;5.20;4.40;;;;;;;15.36;70.40;95279.25;5024611;28;20056;-77
2022/05/18 02:33:03;;;;;;;4.78;4.07;;;;;;;15.39;69.79;95284.22;5024968;28;20084;-76
2022/05/18 02:35:28;;;;;;;4.57;3.80;;;;;;;15.45;69.47;95286.09;5008456;28;20324;-76
2022/05/18 02:37:54;;;;;;;3.92;3.50;;;;;;;15.51;69.03;95299.81;5007781;28;20431;-77
2022/05/18 02:40:19;;;;;;;4.75;3.47;;;;;;;15.45;69.47;95280.69;5024610;28;20053;-76
2022/05/18 02:42:45;;;;;;;5.05;3.63;;;;;;;15.48;69.13;95281.28;5007930;28;20056;-77
2022/05/18 02:45:10;;;;;;;3.72;3.33;;;;;;;15.51;69.25;95275.47;5026228;28;20129;-77
2022/05/18 02:47:36;;;;;;;4.00;3.20;;;;;;;15.56;69.14;95279.19;4991604;28;20033;-77
2022/05/18 02:50:01;;;;;;;4.18;3.20;;;;;;;15.62;68.40;95274.78;5008511;28;20040;-77
2022/05/18 02:52:27;;;;;;;11.13;2.90;;;;;;;15.60;68.86;95279.59;5008034;28;20564;-77
2022/05/18 02:57:36;;;;;;;5.20;3.30;;;;;;;15.75;67.92;95283.94;5025925;28;20569;-75
2022/05/18 03:00:03;;;;;;;5.72;3.15;;;;;;;15.75;68.33;95286.63;5023959;28;20029;-76
2022/05/18 03:02:28;;;;;;;3.70;3.10;;;;;;;15.75;68.28;95292.84;5024624;28;20036;-75
2022/05/18 03:04:54;;;;;;;4.35;3.20;;;;;;;15.75;68.26;95300.97;5024072;28;20026;-77
2022/05/18 03:07:19;;;;;;;3.60;2.97;;;;;;;15.76;68.14;95299.09;5024627;28;20064;-75
2022/05/18 03:09:45;;;;;;;3.53;3.10;;;;;;;15.79;68.33;95299.50;5025633;28;20026;-77
2022/05/18 03:12:11;;;;;;;3.20;2.90;;;;;;;15.84;68.48;95300.72;5025608;28;20449;-76
2022/05/18 03:14:36;;;;;;;4.72;3.55;;;;;;;15.90;68.80;95303.41;5024619;28;20064;-75
2022/05/18 03:17:02;;;;;;;3.60;2.92;;;;;;;15.91;68.41;95305.06;5025110;28;20025;-76
2022/05/18 03:19:28;;;;;;;4.28;3.70;;;;;;;15.96;68.37;95309.81;5029747;28;20529;-77
2022/05/18 03:24:37;;;;;;;4.18;3.67;;;;;;;16.11;67.96;95311.47;5029456;28;20040;-75
2022/05/18 03:27:03;;;;;;;6.55;3.90;;;;;;;16.14;68.37;95314.59;5011366;28;20030;-77
2022/05/18 03:29:28;;;;;;;5.25;3.90;;;;;;;16.21;67.85;95317.25;5027916;28;20030;-76
2022/05/18 03:31:54;;;;;;;5.25;3.90;;;;;;;16.27;67.62;95305.56;5027881;28;20022;-77
2022/05/18 03:34:19;;;;;;;4.78;3.92;;;;;;;16.15;68.28;95315.41;5010986;28;20025;-76
2022/05/18 03:36:45;;;;;;;6.03;3.80;;;;;;;16.13;68.15;95325.63;5011472;28;20038;-77
2022/05/18 03:39:11;;;;;;;5.38;4.63;;;;;;;16.10;68.32;95321.47;5028537;28;20029;-77
2022/05/18 03:41:36;;;;;;;6.32;4.10;;;;;;;16.17;68.36;95322.25;5029359;28;20045;-76
2022/05/18 03:44:03;;;;;;;5.82;4.40;;;;;;;16.24;68.26;95322.25;5028765;28;20022;-77
2022/05/18 03:46:28;;;;;;;5.20;3.58;;;;;;;16.29;68.03;95318.88;5011309;28;20033;-76
2022/05/18 03:48:54;;;;;;;5.30;4.07;;;;;;;16.29;68.02;95325.13;5027723;28;20064;-76
2022/05/18 03:51:19;;;;;;;6.78;4.15;;;;;;;16.31;67.84;95322.22;5028706;28;20504;-74
2022/05/18 03:53:46;;;;;;;6.93;4.38;;;;;;;16.30;68.25;95328.66;5027522;28;20025;-76
2022/05/18 03:56:11;;;;;;;9.02;4.70;;;;;;;16.40;67.68;95322.78;5026713;28;20029;-76
2022/05/18 03:58:37;;;;;;;4.85;4.35;;;;;;;16.36;68.00;95330.53;5028898;28;20088;-76
2022/05/18 04:01:08;;;;;;;5.70;4.40;;;;;;;16.36;68.07;95326.97;5010228;28;20101;-76
2022/05/18 04:03:33;;;;;;;8.10;4.32;;;;;;;16.41;67.55;95327.97;5011801;28;20025;-75
2022/05/18 04:05:59;;;;;;;6.32;4.35;;;;;;;16.45;67.24;95328.38;5026881;28;20044;-77
2022/05/18 04:08:24;;;;;;;5.53;4.50;;;;;;;16.52;67.64;95329.16;5011078;28;20461;-76
2022/05/18 04:10:49;;;;;;;6.20;4.70;;;;;;;16.49;67.57;95334.19;5028677;28;20468;-75
2022/05/18 04:13:20;;;;;;;6.22;4.45;;;;;;;16.53;67.46;95335.41;5027833;28;20025;-75
2022/05/18 04:15:45;;;;;;;6.43;4.80;;;;;;;16.56;67.93;95340.38;5027280;28;20026;-76
2022/05/18 04:18:11;;;;;;;7.03;4.78;;;;;;;16.61;67.91;95332.44;5027700;28;20052;-76
2022/05/18 04:20:36;;;;;;;7.32;4.32;;;;;;;16.68;67.93;95332.41;5028650;28;20018;-76
2022/05/18 04:23:03;;;;;;;5.70;4.28;;;;;;;16.71;68.14;95334.69;5027923;28;20034;-77
2022/05/18 04:25:28;;;;;;;6.95;4.60;;;;;;;16.76;68.05;95337.56;5027115;28;20033;-77
2022/05/18 04:27:54;;;;;;;7.72;4.40;;;;;;;16.82;67.92;95333.16;5027999;28;20109;-75
2022/05/18 04:30:24;;;;;;;6.20;4.28;;;;;;;16.75;67.56;95337.78;5027267;28;20404;-75
2022/05/18 04:32:50;;;;;;;7.90;4.47;;;;;;;16.68;68.42;95337.81;5010708;28;20057;-76
2022/05/18 04:35:17;;;;;;;7.03;5.03;;;;;;;16.70;68.05;95334.91;5009389;28;20156;-77
2022/05/18 04:37:42;;;;;;;6.07;4.90;;;;;;;16.75;68.56;95335.09;5010635;28;20029;-76
2022/05/18 04:40:08;;;;;;;5.60;4.50;;;;;;;16.78;67.87;95338.16;5009461;28;20025;-76
2022/05/18 04:42:34;;;;;;;5.60;4.63;;;;;;;16.68;68.43;95335.94;5010265;28;20021;-75
2022/05/18 04:44:59;;;;;;;4.82;4.28;;;;;;;16.60;68.60;95338.91;5026517;28;20415;-75
2022/05/18 04:47:25;;;;;;;4.90;4.38;;;;;;;16.62;69.00;95344.94;5027531;28;20034;-78
2022/05/18 04:49:51;;;;;;;4.85;4.35;;;;;;;16.70;68.88;95343.03;5010237;28;20034;-76
2022/05/18 04:52:20;;;;;;;6.45;4.95;;;;;;;16.74;69.12;95341.53;5027023;28;20502;-75
2022/05/18 04:54:45;;;;;;;7.78;5.38;;;;;;;16.76;68.76;95340.28;5009983;28;20527;-77
2022/05/18 04:57:10;;;;;;;8.68;5.63;;;;;;;16.77;69.29;95343.78;5027130;28;20025;-75
2022/05/18 04:59:36;;;;;;;8.18;5.38;;;;;;;16.71;68.97;95342.81;5009838;28;20021;-75
2022/05/18 05:02:02;;;;;;;7.30;6.05;;;;;;;16.68;69.62;95341.34;5009548;28;20444;-76
2022/05/18 05:04:28;;;;;;;9.40;5.72;;;;;;;16.68;69.69;95333.22;5027326;28;20040;-75
2022/05/18 05:06:53;;;;;;;9.20;5.75;;;;;;;16.67;69.90;95342.41;5009901;28;20022;-76
2022/05/18 05:09:22;;;;;;;6.85;5.85;;;;;;;16.71;70.17;95341.97;5026922;28;20033;-76
2022/05/18 05:11:48;;;;;;;7.43;6.22;;;;;;;16.60;70.47;95349.75;5026229;28;20061;-76
2022/05/18 05:14:13;;;;;;;7.72;6.40;;;;;;;16.69;70.84;95344.91;5025583;28;20052;-76
2022/05/18 05:16:39;;;;;;;7.88;6.35;;;;;;;16.71;71.31;95347.38;5008958;28;20037;-77
2022/05/18 05:19:05;;;;;;;7.50;6.40;;;;;;;16.68;71.35;95356.78;5026978;28;20021;-76
2022/05/18 05:21:30;;;;;;;7.85;6.55;;;;;;;16.73;71.24;95359.69;5026992;28;20239;-75
2022/05/18 05:23:56;;;;;;;8.27;6.45;;;;;;;16.77;71.00;95363.59;5027031;28;20025;-75
2022/05/18 05:26:21;;;;;;;7.60;6.40;;;;;;;16.83;70.54;95367.28;5008785;28;20033;-76
2022/05/18 05:28:46;;;;;;;8.88;6.47;;;;;;;16.83;70.26;95370.00;5027083;28;20124;-76
2022/05/18 05:31:12;;;;;;;9.45;6.43;;;;;;;16.79;70.89;95369.63;5024993;28;20052;-76
2022/05/18 05:33:39;;;;;;;8.85;6.93;;;;;;;16.81;71.14;95374.81;5026835;28;20493;-76
2022/05/18 05:36:05;;;;;;;9.13;7.30;;;;;;;16.88;70.59;95372.09;5026409;28;20022;-76
2022/05/18 05:38:31;;;;;;;10.52;7.07;;;;;;;16.91;70.70;95369.75;5009044;28;20037;-77
2022/05/18 05:40:59;;;;;;;7.50;6.53;;;;;;;16.92;71.18;95376.84;5025839;28;20083;-77
2022/05/18 05:43:25;;;;;;;9.30;6.57;;;;;;;16.91;71.25;95379.78;5009215;28;20092;-76
2022/05/18 05:45:55;;;;;;;8.45;6.95;;;;;;;16.92;71.11;95381.41;5008961;28;20424;-77
2022/05/18 05:48:20;;;;;;;8.02;6.70;;;;;;;16.83;71.40;95380.03;5008591;28;20065;-78
2022/05/18 05:50:46;;;;;;;7.03;5.90;;;;;;;16.84;70.70;95390.66;5008735;28;20033;-76
2022/05/18 05:53:11;;;;;;;7.05;5.95;;;;;;;16.75;70.65;95392.75;5026002;28;20562;-75
2022/05/18 05:55:36;;;;;;;7.65;6.32;;;;;;;16.71;71.08;95388.84;5026319;28;20071;-75
2022/05/18 05:58:02;;;;;;;8.05;6.30;;;;;;;16.72;70.93;95386.97;5026530;28;20360;-77
2022/05/18 06:00:27;;;;;;;9.07;6.60;;;;;;;16.74;70.86;95393.81;5026572;28;20407;-77
2022/05/18 06:02:53;;;;;;;9.80;7.40;;;;;;;16.74;71.42;95387.56;5024770;28;20033;-77
2022/05/18 06:05:18;;;;;;;9.35;7.18;;;;;;;16.73;71.83;95388.63;5026164;28;20389;-76
2022/05/18 06:07:44;;;;;;;11.80;7.70;;;;;;;16.64;72.78;95399.69;5024661;28;20120;-77
2022/05/18 06:10:10;;;;;;;9.13;7.78;;;;;;;16.55;72.87;95403.72;5024342;28;20030;-75
2022/05/18 06:12:36;;;;;;;12.48;8.05;;;;;;;16.51;73.49;95402.47;5008384;28;20463;-75
2022/05/18 06:15:01;;;;;;;10.13;8.63;;;;;;;16.46;74.27;95408.53;5007885;28;20052;-75
2022/05/18 06:17:27;;;;;;;10.45;8.18;;;;;;;16.39;75.29;95414.00;5026353;28;20516;-77
2022/05/18 06:19:52;;;;;;;9.88;7.40;;;;;;;16.41;75.53;95406.47;5024418;28;20036;-75
2022/05/18 06:22:18;;;;;;;12.23;6.78;;;;;;;16.44;74.93;95410.63;5024867;28;20117;-75
2022/05/18 06:24:47;;;;;;;8.18;6.72;;;;;;;16.44;74.52;95410.63;5026352;28;20032;-76
2022/05/18 06:27:13;;;;;;;8.48;6.22;;;;;;;16.49;74.65;95412.69;5025965;28;20038;-76
2022/05/18 06:29:39;;;;;;;7.50;5.75;;;;;;;16.56;73.50;95416.19;4991798;28;20026;-77
2022/05/18 06:32:05;;;;;;;6.78;5.70;;;;;;;16.61;73.36;95421.78;5024162;28;20499;-76
2022/05/18 06:34:30;;;;;;;7.45;5.00;;;;;;;16.64;72.97;95417.81;5024697;28;20040;-76
2022/05/18 06:36:56;;;;;;;7.18;5.20;;;;;;;16.62;73.16;95423.44;5025357;28;20021;-76
2022/05/18 06:39:21;;;;;;;7.57;4.75;;;;;;;16.68;73.25;95419.06;5026512;28;20087;-76
2022/05/18 06:41:47;;;;;;;7.60;5.72;;;;;;;16.76;72.70;95421.53;5024026;28;20091;-77
2022/05/18 06:44:12;;;;;;;6.55;5.53;;;;;;;16.84;71.97;95422.31;5024677;28;20014;-76
2022/05/18 06:46:38;;;;;;;7.13;5.68;;;;;;;16.91;71.77;95433.94;5025772;28;20037;-75
2022/05/18 06:49:04;;;;;;;7.60;5.80;;;;;;;16.92;71.85;95433.72;5023733;28;20033;-76
2022/05/18 06:51:32;;;;;;;6.00;5.00;;;;;;;16.96;71.06;95430.59;5026875;28;20028;-76
2022/05/18 06:53:57;;;;;;;6.13;5.00;;;;;;;16.98;71.86;95439.31;5011662;28;20056;-76
2022/05/18 06:56:28;;;;;;;6.75;5.43;;;;;;;16.92;71.95;95441.84;5028758;28;20593;-77
2022/05/18 06:58:54;;;;;;;5.85;4.90;;;;;;;16.98;71.15;95439.31;5012403;28;20067;-76
2022/05/18 07:01:19;;;;;;;7.68;5.00;;;;;;;17.08;71.42;95434.28;5029605;28;20025;-77
2022/05/18 07:03:45;;;;;;;6.38;5.50;;;;;;;17.09;70.92;95435.94;5012035;28;20115;-77
2022/05/18 07:06:10;;;;;;;7.43;5.80;;;;;;;17.15;70.34;95447.78;5027695;28;20033;-76
2022/05/18 07:08:36;;;;;;;9.05;6.03;;;;;;;17.15;70.68;95447.78;5029700;28;20036;-76
2022/05/18 07:11:03;;;;;;;8.30;5.93;;;;;;;17.13;69.19;95441.75;5027530;28;20030;-77
2022/05/18 07:13:29;;;;;;;6.85;6.03;;;;;;;17.21;69.88;95446.06;5029722;28;20044;-77
2022/05/18 07:15:54;;;;;;;7.25;6.00;;;;;;;17.27;69.46;95448.75;5027569;28;20033;-75
2022/05/18 07:18:20;;;;;;;7.15;5.95;;;;;;;17.30;70.25;95444.75;5011913;28;20507;-77
2022/05/18 07:20:46;;;;;;;6.88;5.78;;;;;;;17.35;69.97;95442.22;5029378;28;20026;-76
2022/05/18 07:23:13;;;;;;;7.05;6.35;;;;;;;17.46;70.01;95442.56;5011301;28;20057;-76
2022/05/18 07:25:38;;;;;;;7.03;6.32;;;;;;;17.46;69.24;95450.72;5029369;28;20032;-76
2022/05/18 07:28:04;;;;;;;7.40;6.60;;;;;;;17.46;69.43;95456.13;5028505;28;20025;-76
2022/05/18 07:30:30;;;;;;;7.40;6.28;;;;;;;17.56;69.44;95451.03;5029308;28;20032;-76
2022/05/18 07:32:56;;;;;;;7.97;6.70;;;;;;;17.64;68.73;95452.63;5027365;28;20434;-76
2022/05/18 07:35:21;;;;;;;9.35;7.10;;;;;;;17.63;68.59;95450.97;5029596;28;20095;-76
2022/05/18 07:37:47;;;;;;;11.75;7.25;;;;;;;17.70;68.64;95453.66;5027480;28;20075;-76
2022/05/18 07:40:12;;;;;;;9.48;7.18;;;;;;;17.76;69.06;95453.59;5010997;28;20025;-76
2022/05/18 07:42:38;;;;;;;8.25;7.35;;;;;;;17.89;68.62;95449.09;5027401;28;20691;-76
2022/05/18 07:45:06;;;;;;;8.10;7.15;;;;;;;17.89;68.47;95455.31;5028619;28;20469;-77
2022/05/18 07:47:31;;;;;;;8.45;7.53;;;;;;;18.03;67.91;95460.66;5027900;28;20128;-75
2022/05/18 07:49:57;;;;;;;8.20;7.40;;;;;;;18.09;67.47;95461.66;5027042;28;20400;-76
2022/05/18 07:52:23;;;;;;;8.77;7.32;;;;;;;18.17;66.66;95453.22;5027370;28;20029;-74
2022/05/18 07:54:48;;;;;;;8.80;7.35;;;;;;;18.22;66.64;95461.53;5028422;28;20339;-76
2022/05/18 07:57:15;;;;;;;9.45;7.65;;;;;;;18.23;66.32;95455.03;5028508;28;20037;-75
2022/05/18 07:59:40;;;;;;;8.82;7.93;;;;;;;18.31;65.90;95463.94;5010870;28;20115;-76
2022/05/18 08:02:06;;;;;;;9.15;7.50;;;;;;;18.33;65.74;95453.69;5026755;28;20447;-77
2022/05/18 08:04:31;;;;;;;9.05;7.45;;;;;;;18.29;65.19;95458.75;5026336;28;20492;-75
2022/05/18 08:06:57;;;;;;;8.13;7.20;;;;;;;18.25;63.97;95458.34;5026637;28;20052;-77
2022/05/18 08:09:22;;;;;;;9.88;7.22;;;;;;;18.23;64.33;95459.66;5028755;28;20048;-76
2022/05/18 08:17:17;;;;;;;9.45;7.30;;;;;;;18.50;64.64;95470.22;5027159;28;20032;-76
2022/05/18 08:19:43;;;;;;;8.80;7.78;;;;;;;18.59;64.47;95468.84;5010205;28;20025;-77
2022/05/18 08:22:08;;;;;;;9.13;7.03;;;;;;;18.64;64.67;95469.00;5028505;28;20029;-76
2022/05/18 08:24:36;;;;;;;7.75;6.47;;;;;;;18.67;63.30;95470.41;5026420;28;20412;-76
2022/05/18 08:27:03;;;;;;;7.60;6.80;;;;;;;18.78;62.72;95466.13;5010896;28;20416;-75
2022/05/18 08:29:29;;;;;;;7.70;6.90;;;;;;;18.92;62.81;95477.66;5027780;28;20033;-76
2022/05/18 08:31:56;;;;;;;11.75;6.82;;;;;;;18.96;62.92;95467.16;5028234;28;20026;-75
2022/05/18 08:34:21;;;;;;;8.93;6.85;;;;;;;18.97;63.07;95475.09;5010269;28;20031;-75
2022/05/18 08:36:46;;;;;;;8.65;6.80;;;;;;;18.97;63.00;95482.41;5026336;28;20112;-76
2022/05/18 08:39:12;;;;;;;8.95;6.63;;;;;;;19.09;63.30;95482.44;5026979;28;20017;-75
2022/05/18 08:41:45;;;;;;;8.00;6.63;;;;;;;19.31;61.53;95477.38;5027277;28;20041;-78
2022/05/18 08:44:19;;;;;;;8.27;6.90;;;;;;;19.28;61.52;95469.69;5026773;28;20029;-76
2022/05/18 08:46:49;;;;;;;7.90;6.82;;;;;;;19.15;62.23;95459.81;5010463;28;20381;-77
2022/05/18 08:49:27;;;;;;;12.00;8.13;;;;;;;19.23;61.97;95464.09;5026972;28;20021;-77
2022/05/18 08:52:07;;;;;;;7.78;6.90;;;;;;;19.18;62.96;95455.81;5026635;28;20057;-77
2022/05/18 08:54:36;;;;;;;9.55;7.15;;;;;;;19.35;62.58;95458.69;5025744;28;20104;-76
2022/05/18 08:57:02;;;;;;;8.13;6.40;;;;;;;19.49;62.77;95459.31;5026447;28;20030;-77
2022/05/18 08:59:33;;;;;;;9.50;6.63;;;;;;;19.64;61.94;95451.53;5009414;28;20032;-76
2022/05/18 09:01:59;;;;;;;6.78;5.38;;;;;;;19.81;59.17;95448.13;5026478;28;20412;-77
2022/05/18 09:04:43;;;;;;;7.05;5.53;;;;;;;19.81;57.29;95429.09;5025903;28;20014;-76
2022/05/18 09:07:11;;;;;;;7.32;5.30;;;;;;;20.16;57.42;95437.50;5011913;28;20292;-76
2022/05/18 09:10:16;;;;;;;7.65;5.35;;;;;;;20.18;57.60;95449.00;5009752;28;20137;-76
2022/05/18 09:12:47;;;;;;;10.65;5.22;;;;;;;20.07;56.59;95442.50;5025733;28;20481;-77
2022/05/18 09:15:19;;;;;;;5.95;5.03;;;;;;;20.31;56.37;95426.97;5027295;28;20493;-76
2022/05/18 09:18:01;;;;;;;6.43;5.35;;;;;;;20.31;56.65;95437.03;5027105;28;20056;-77
2022/05/18 09:20:32;;;;;;;7.70;5.43;;;;;;;20.19;56.66;95434.31;5026655;28;20034;-76
2022/05/18 09:23:15;;;;;;;6.57;5.18;;;;;;;20.22;56.38;95436.53;5027348;28;20033;-75
2022/05/18 09:25:55;;;;;;;5.28;4.28;;;;;;;20.25;55.33;95433.34;5026756;28;20030;-77
2022/05/18 09:29:11;;;;;;;6.18;4.70;;;;;;;20.19;55.82;95424.25;5027171;28;20330;-76
2022/05/18 09:32:00;;;;;;;5.88;4.18;;;;;;;20.05;55.43;95420.13;5025385;28;20048;-74
2022/05/18 09:35:14;;;;;;;5.07;4.57;;;;;;;19.98;55.64;95425.66;5009801;28;20053;-77
2022/05/18 09:37:45;;;;;;;5.78;4.68;;;;;;;19.89;55.47;95419.75;5024710;28;20474;-77
2022/05/18 09:40:17;;;;;;;4.82;4.32;;;;;;;19.85;55.45;95424.81;5009716;28;20455;-77
2022/05/18 09:42:47;;;;;;;6.30;4.35;;;;;;;19.81;54.90;95410.03;5008780;28;20526;-76
2022/05/18 09:45:15;;;;;;;6.05;4.10;;;;;;;19.74;55.71;95420.19;5009431;28;20034;-75
2022/05/18 09:47:47;;;;;;;4.97;4.05;;;;;;;19.68;54.60;95424.69;5008754;28;20102;-76
2022/05/18 09:50:13;;;;;;;;;;;;;;;19.67;55.24;95417.59;5009881;28;20511;-77
2022/05/18 09:52:39;;;;;;;5.00;3.90;;;;;;;19.62;54.83;95423.75;5026330;28;19913;-75
2022/05/18 09:55:08;;;;;;;8.68;4.00;;;;;;;19.58;55.06;95430.72;4991994;28;20053;-75
2022/05/18 09:57:48;;;;;;;4.97;4.10;;;;;;;19.46;54.92;95430.69;4992895;28;20450;-76
2022/05/18 10:00:16;;;;;;;4.80;3.78;;;;;;;19.37;55.04;95441.09;5008398;28;20041;-76
2022/05/18 10:08:20;;;;;;;3.90;3.40;;;;;;;19.17;55.08;95446.00;5011380;28;20518;-77
2022/05/18 10:10:45;;;;;;;6.57;3.47;;;;;;;19.06;55.43;95450.28;5008427;28;20039;-77
2022/05/18 10:13:16;;;;;;;7.55;3.72;;;;;;;18.96;57.74;95464.44;5008409;28;20419;-76
2022/05/18 10:15:47;;;;;;;4.63;3.67;;;;;;;18.84;59.06;95459.78;5026186;28;20029;-79
2022/05/18 10:18:15;;;;;;;4.50;2.40;;;;;;;18.63;59.71;95461.91;5024784;28;20471;-77
2022/05/18 10:20:41;;;;;;;2.95;1.92;;;;;;;18.55;58.88;95483.94;5024494;28;20033;-77
2022/05/18 10:23:29;;;;;;;4.13;1.80;;;;;;;18.44;60.80;95482.81;4992175;28;20035;-76
2022/05/18 10:25:54;;;;;;;5.18;3.20;;;;;;;18.34;62.30;95496.06;5008140;28;20100;-75
2022/05/18 10:28:30;;;;;;;4.95;2.67;;;;;;;18.24;63.60;95504.72;5024629;28;20044;-76
2022/05/18 10:31:01;;;;;;;4.55;2.80;;;;;;;18.11;63.41;95501.06;5008332;28;20018;-76
2022/05/18 10:33:36;;;;;;;4.60;1.80;;;;;;;18.02;62.21;95511.38;5008594;28;20512;-76
2022/05/18 10:36:08;;;;;;;4.40;2.03;;;;;;;17.86;61.89;95515.47;5024565;28;20104;-75
2022/05/18 10:38:34;;;;;;;4.82;2.60;;;;;;;17.81;61.59;95514.47;5026083;28;20029;-77
2022/05/18 10:41:02;;;;;;;4.45;2.22;;;;;;;17.80;62.54;95524.47;5024377;28;20037;-75
2022/05/18 10:44:03;;;;;;;4.15;2.38;;;;;;;17.82;61.78;95533.25;5025849;28;20028;-76
2022/05/18 10:46:38;;;;;;;3.33;2.17;;;;;;;17.81;61.67;95538.88;5008784;28;20025;-76
2022/05/18 10:49:27;;;;;;;2.55;2.00;;;;;;;17.79;60.98;95539.94;5008458;28;20038;-78
2022/05/18 10:51:52;;;;;;;2.67;2.00;;;;;;;17.82;61.51;95538.66;5024823;28;20072;-75
2022/05/18 10:54:24;;;;;;;3.38;2.40;;;;;;;17.75;60.69;95546.03;5025022;28;20100;-75
2022/05/18 10:56:50;;;;;;;4.43;1.83;;;;;;;17.87;61.51;95549.69;5024544;28;20037;-77
2022/05/18 10:59:15;;;;;;;4.80;1.83;;;;;;;17.90;58.73;95565.53;5008203;28;20129;-77
2022/05/18 11:02:06;;;;;;;3.10;1.20;;;;;;;18.04;58.90;95555.41;5025762;28;20025;-75
2022/05/18 11:04:44;;;;;;;2.45;1.23;;;;;;;18.14;57.81;95568.50;5009281;28;20282;-75
2022/05/18 11:07:09;;;;;;;2.33;1.20;;;;;;;18.19;57.59;95561.56;5008731;28;20029;-78
2022/05/18 11:09:41;;;;;;;2.95;1.00;;;;;;;18.27;57.91;95564.84;5007940;28;20028;-78
2022/05/18 11:12:43;;;;;;;2.75;1.13;;;;;;;18.21;58.22;95576.59;5007939;28;20022;-80
2022/05/18 11:15:31;;;;;;;1.67;1.05;;;;;;;18.23;58.20;95582.59;5024956;28;20045;-79
2022/05/18 11:18:27;;;;;;;5.68;1.00;;;;;;;18.21;59.04;95582.03;5024728;28;20037;-77
2022/05/18 11:21:22;;;;;;;3.85;0.93;;;;;;;18.25;58.26;95583.22;5024146;28;20053;-81
2022/05/18 11:23:53;;;;;;;1.85;0.90;;;;;;;18.33;57.84;95582.09;5025779;28;20021;-78
2022/05/18 11:26:31;;;;;;;1.30;0.80;;;;;;;18.34;56.17;95582.94;5023859;28;20116;-76
2022/05/18 11:29:25;;;;;;;1.50;0.60;;;;;;;18.32;55.26;95583.19;5025667;28;20029;-77
2022/05/18 11:32:07;;;;;;;0.88;0.40;;;;;;;18.26;54.88;95594.94;5024366;28;20037;-76
2022/05/18 11:34:51;;;;;;;2.45;0.40;;;;;;;18.23;55.59;95600.81;5024011;28;20029;-76
2022/05/18 11:37:31;;;;;;;0.90;0.50;;;;;;;18.16;56.35;95604.41;5025314;28;20139;-78
2022/05/18 11:40:09;;;;;;;3.38;0.55;;;;;;;18.16;57.65;95604.41;5026776;28;20029;-76
2022/05/18 11:42:40;;;;;;;2.03;0.63;;;;;;;18.22;58.61;95602.69;5029073;28;20049;-76
2022/05/18 11:45:31;;;;;;;1.05;0.50;;;;;;;18.25;57.60;95615.00;5028963;28;20460;-75
2022/05/18 11:48:15;;;;;;;1.75;0.90;;;;;;;18.26;57.01;95616.66;5011686;28;20075;-75
2022/05/18 11:51:22;;;;;;;1.13;0.60;;;;;;;18.20;56.99;95618.34;5029154;28;20117;-76
2022/05/18 11:54:00;;;;;;;1.02;0.60;;;;;;;18.16;55.90;95617.97;5028588;28;20041;-75
2022/05/18 11:56:35;;;;;;;3.58;0.80;;;;;;;18.15;55.54;95624.44;5026707;28;20062;-75
2022/05/18 11:59:21;;;;;;;5.53;1.30;;;;;;;18.12;54.54;95630.31;5027680;28;20030;-76